sensor_id;sensor_type;location;lat;lon;timestamp;P1;durP1;ratioP1;P2;durP2;ratioP2
20828;SDS011;10575;50.124;8.582;2023-07-13T14:21:31;2.08;;;1.23;;
20828;SDS011;10575;50.124;8.582;2023-07-13T14:23:57;2.65;;;1.35;;
20828;SDS011;10575;50.124;8.582;2023-07-13T14:26:24;3.70;;;1.65;;
20828;SDS011;10575;50.124;8.582;2023-07-13T14:28:51;2.53;;;1.48;;
20828;SDS011;10575;50.124;8.582;2023-07-13T14:31:22;4.43;;;1.50;;
20828;SDS011;10575;50.124;8.582;2023-07-13T14:33:48;4.60;;;1.30;;
20828;SDS011;10575;50.124;8.582;2023-07-13T14:38:48;3.80;;;1.20;;
20828;SDS011;10575;50.124;8.582;2023-07-13T14:41:14;1.65;;;1.10;;
20828;SDS011;10575;50.124;8.582;2023-07-13T14:43:40;2.65;;;1.50;;
20828;SDS011;10575;50.124;8.582;2023-07-13T14:46:07;3.08;;;1.40;;
20828;SDS011;10575;50.124;8.582;2023-07-13T14:48:52;3.88;;;1.33;;
20828;SDS011;10575;50.124;8.582;2023-07-13T14:51:24;2.53;;;1.45;;
20828;SDS011;10575;50.124;8.582;2023-07-13T14:53:50;2.45;;;1.58;;
20828;SDS011;10575;50.124;8.582;2023-07-13T14:56:16;2.33;;;1.30;;
20828;SDS011;10575;50.124;8.582;2023-07-13T14:58:42;3.45;;;1.55;;
20828;SDS011;10575;50.124;8.582;2023-07-13T15:01:16;3.58;;;1.40;;
20828;SDS011;10575;50.124;8.582;2023-07-13T15:03:43;4.95;;;1.20;;
20828;SDS011;10575;50.124;8.582;2023-07-13T15:06:11;5.38;;;1.60;;
20828;SDS011;10575;50.124;8.582;2023-07-13T15:08:38;1.98;;;1.15;;
20828;SDS011;10575;50.124;8.582;2023-07-13T15:11:06;1.88;;;1.63;;
20828;SDS011;10575;50.124;8.582;2023-07-13T15:13:32;2.80;;;1.25;;
20828;SDS011;10575;50.124;8.582;2023-07-13T15:15:58;1.55;;;1.20;;
20828;SDS011;10575;50.124;8.582;2023-07-13T15:18:24;1.83;;;1.38;;
20828;SDS011;10575;50.124;8.582;2023-07-13T15:20:51;2.17;;;1.20;;
20828;SDS011;10575;50.124;8.582;2023-07-13T15:23:20;2.50;;;1.33;;
20828;SDS011;10575;50.124;8.582;2023-07-13T15:25:47;1.85;;;1.30;;
20828;SDS011;10575;50.124;8.582;2023-07-13T15:28:13;2.78;;;1.38;;
20828;SDS011;10575;50.124;8.582;2023-07-13T15:30:40;1.27;;;1.10;;
20828;SDS011;10575;50.124;8.582;2023-07-13T15:33:29;2.40;;;1.45;;
20828;SDS011;10575;50.124;8.582;2023-07-13T15:35:55;3.00;;;1.33;;
20828;SDS011;10575;50.124;8.582;2023-07-13T15:38:23;4.40;;;1.27;;
20828;SDS011;10575;50.124;8.582;2023-07-13T15:40:50;1.90;;;1.42;;
20828;SDS011;10575;50.124;8.582;2023-07-13T15:43:18;3.85;;;1.42;;
20828;SDS011;10575;50.124;8.582;2023-07-13T15:45:44;3.13;;;1.40;;
20828;SDS011;10575;50.124;8.582;2023-07-13T15:48:18;2.53;;;1.35;;
20828;SDS011;10575;50.124;8.582;2023-07-13T15:50:50;1.50;;;1.10;;
20828;SDS011;10575;50.124;8.582;2023-07-13T15:53:19;2.60;;;1.58;;
20828;SDS011;10575;50.124;8.582;2023-07-13T15:55:54;6.72;;;1.35;;
20828;SDS011;10575;50.124;8.582;2023-07-13T15:58:20;1.75;;;1.40;;
20828;SDS011;10575;50.124;8.582;2023-07-13T16:00:46;2.10;;;1.40;;
20828;SDS011;10575;50.124;8.582;2023-07-13T16:03:16;2.67;;;1.38;;
20828;SDS011;10575;50.124;8.582;2023-07-13T16:05:41;4.60;;;1.48;;
20828;SDS011;10575;50.124;8.582;2023-07-13T16:08:09;3.42;;;1.30;;
20828;SDS011;10575;50.124;8.582;2023-07-13T16:10:52;3.33;;;1.08;;
20828;SDS011;10575;50.124;8.582;2023-07-13T16:13:19;1.98;;;1.20;;
20828;SDS011;10575;50.124;8.582;2023-07-13T16:15:45;3.83;;;1.23;;
20828;SDS011;10575;50.124;8.582;2023-07-13T16:18:12;1.75;;;1.40;;
20828;SDS011;10575;50.124;8.582;2023-07-13T16:20:41;2.35;;;1.45;;
20828;SDS011;10575;50.124;8.582;2023-07-13T16:23:08;3.78;;;1.10;;
20828;SDS011;10575;50.124;8.582;2023-07-13T16:25:36;2.55;;;1.40;;
20828;SDS011;10575;50.124;8.582;2023-07-13T16:28:02;2.78;;;1.30;;
20828;SDS011;10575;50.124;8.582;2023-07-13T16:30:29;1.90;;;1.20;;
20828;SDS011;10575;50.124;8.582;2023-07-13T16:32:56;3.67;;;1.17;;
20828;SDS011;10575;50.124;8.582;2023-07-13T16:35:29;5.22;;;1.40;;
20828;SDS011;10575;50.124;8.582;2023-07-13T16:37:59;0.80;;;0.80;;
20828;SDS011;10575;50.124;8.582;2023-07-13T16:40:29;2.17;;;0.90;;
20828;SDS011;10575;50.124;8.582;2023-07-13T16:42:57;3.35;;;1.25;;
20828;SDS011;10575;50.124;8.582;2023-07-13T16:45:26;2.40;;;1.13;;
20828;SDS011;10575;50.124;8.582;2023-07-13T16:47:58;3.17;;;1.13;;
20828;SDS011;10575;50.124;8.582;2023-07-13T16:50:26;2.72;;;1.15;;
20828;SDS011;10575;50.124;8.582;2023-07-13T16:52:57;2.20;;;1.27;;
20828;SDS011;10575;50.124;8.582;2023-07-13T16:55:23;2.78;;;1.38;;
20828;SDS011;10575;50.124;8.582;2023-07-13T16:57:55;4.50;;;1.40;;
20828;SDS011;10575;50.124;8.582;2023-07-13T17:00:29;1.92;;;1.08;;
20828;SDS011;10575;50.124;8.582;2023-07-13T17:02:58;2.60;;;1.33;;
20828;SDS011;10575;50.124;8.582;2023-07-13T17:05:41;2.72;;;1.20;;
20828;SDS011;10575;50.124;8.582;2023-07-13T17:08:15;2.25;;;1.23;;
20828;SDS011;10575;50.124;8.582;2023-07-13T17:10:45;3.42;;;1.30;;
20828;SDS011;10575;50.124;8.582;2023-07-13T17:13:15;4.38;;;1.55;;
20828;SDS011;10575;50.124;8.582;2023-07-13T17:15:44;1.70;;;1.10;;
20828;SDS011;10575;50.124;8.582;2023-07-13T17:18:12;2.05;;;1.52;;
20828;SDS011;10575;50.124;8.582;2023-07-13T17:20:40;1.85;;;1.25;;
20828;SDS011;10575;50.124;8.582;2023-07-13T17:23:43;3.30;;;1.25;;
20828;SDS011;10575;50.124;8.582;2023-07-13T17:26:04;2.97;;;1.10;;
20828;SDS011;10575;50.124;8.582;2023-07-13T17:28:29;1.83;;;1.20;;
20828;SDS011;10575;50.124;8.582;2023-07-13T17:30:56;2.13;;;1.25;;
20828;SDS011;10575;50.124;8.582;2023-07-13T17:35:57;2.05;;;1.30;;
20828;SDS011;10575;50.124;8.582;2023-07-13T17:38:38;2.92;;;1.30;;
20828;SDS011;10575;50.124;8.582;2023-07-13T17:41:05;1.30;;;1.20;;
20828;SDS011;10575;50.124;8.582;2023-07-13T17:43:33;1.30;;;1.20;;
20828;SDS011;10575;50.124;8.582;2023-07-13T17:45:59;1.48;;;1.10;;
20828;SDS011;10575;50.124;8.582;2023-07-13T17:48:25;2.30;;;1.33;;
20828;SDS011;10575;50.124;8.582;2023-07-13T17:50:51;1.70;;;1.27;;
20828;SDS011;10575;50.124;8.582;2023-07-13T17:53:20;3.97;;;1.20;;
20828;SDS011;10575;50.124;8.582;2023-07-13T17:55:47;2.25;;;1.23;;
20828;SDS011;10575;50.124;8.582;2023-07-13T17:58:14;2.53;;;1.30;;
20828;SDS011;10575;50.124;8.582;2023-07-13T18:00:41;2.25;;;1.38;;
20828;SDS011;10575;50.124;8.582;2023-07-13T18:03:12;4.72;;;1.30;;
20828;SDS011;10575;50.124;8.582;2023-07-13T18:05:40;1.92;;;1.25;;
20828;SDS011;10575;50.124;8.582;2023-07-13T18:08:17;2.17;;;1.30;;
20828;SDS011;10575;50.124;8.582;2023-07-13T18:10:48;2.83;;;1.63;;
20828;SDS011;10575;50.124;8.582;2023-07-13T18:13:15;2.75;;;1.27;;
20828;SDS011;10575;50.124;8.582;2023-07-13T18:15:42;4.25;;;1.40;;
20828;SDS011;10575;50.124;8.582;2023-07-13T18:18:09;2.33;;;1.30;;
20828;SDS011;10575;50.124;8.582;2023-07-13T18:20:37;3.13;;;1.45;;
20828;SDS011;10575;50.124;8.582;2023-07-13T18:23:08;2.72;;;1.52;;
20828;SDS011;10575;50.124;8.582;2023-07-13T18:25:44;3.40;;;1.70;;
20828;SDS011;10575;50.124;8.582;2023-07-13T18:28:13;3.45;;;1.42;;
20828;SDS011;10575;50.124;8.582;2023-07-13T18:30:42;2.83;;;1.45;;
20828;SDS011;10575;50.124;8.582;2023-07-13T18:33:15;2.30;;;1.35;;
20828;SDS011;10575;50.124;8.582;2023-07-13T18:35:45;1.52;;;1.23;;
20828;SDS011;10575;50.124;8.582;2023-07-13T18:38:15;2.72;;;1.48;;
20828;SDS011;10575;50.124;8.582;2023-07-13T18:40:43;2.55;;;1.20;;
20828;SDS011;10575;50.124;8.582;2023-07-13T18:43:08;3.67;;;1.30;;
20828;SDS011;10575;50.124;8.582;2023-07-13T18:45:34;2.22;;;1.25;;
20828;SDS011;10575;50.124;8.582;2023-07-13T18:48:00;1.48;;;1.00;;
20828;SDS011;10575;50.124;8.582;2023-07-13T18:50:29;2.45;;;1.40;;
20828;SDS011;10575;50.124;8.582;2023-07-13T18:53:00;1.92;;;1.20;;
20828;SDS011;10575;50.124;8.582;2023-07-13T18:55:26;1.80;;;1.33;;
20828;SDS011;10575;50.124;8.582;2023-07-13T18:57:51;5.38;;;1.88;;
20828;SDS011;10575;50.124;8.582;2023-07-13T19:00:22;2.50;;;1.42;;
20828;SDS011;10575;50.124;8.582;2023-07-13T19:02:51;1.20;;;1.10;;
20828;SDS011;10575;50.124;8.582;2023-07-13T19:05:17;1.73;;;1.35;;
20828;SDS011;10575;50.124;8.582;2023-07-13T19:07:45;2.15;;;1.40;;
20828;SDS011;10575;50.124;8.582;2023-07-13T19:10:14;3.92;;;1.10;;
20828;SDS011;10575;50.124;8.582;2023-07-13T19:12:42;3.45;;;1.30;;
20828;SDS011;10575;50.124;8.582;2023-07-13T19:15:17;5.53;;;1.70;;
20828;SDS011;10575;50.124;8.582;2023-07-13T19:17:49;3.78;;;1.70;;
20828;SDS011;10575;50.124;8.582;2023-07-13T19:20:16;3.15;;;1.65;;
20828;SDS011;10575;50.124;8.582;2023-07-13T19:22:48;3.08;;;1.50;;
20828;SDS011;10575;50.124;8.582;2023-07-13T19:25:20;2.90;;;1.58;;
20828;SDS011;10575;50.124;8.582;2023-07-13T19:27:46;1.48;;;1.30;;
20828;SDS011;10575;50.124;8.582;2023-07-13T19:30:14;4.97;;;1.77;;
20828;SDS011;10575;50.124;8.582;2023-07-13T19:32:40;2.97;;;2.05;;
20828;SDS011;10575;50.124;8.582;2023-07-13T19:35:07;3.75;;;1.63;;
20828;SDS011;10575;50.124;8.582;2023-07-13T19:37:33;2.63;;;1.60;;
20828;SDS011;10575;50.124;8.582;2023-07-13T19:40:02;2.65;;;1.95;;
20828;SDS011;10575;50.124;8.582;2023-07-13T19:42:30;3.17;;;1.60;;
20828;SDS011;10575;50.124;8.582;2023-07-13T19:44:58;3.83;;;1.90;;
20828;SDS011;10575;50.124;8.582;2023-07-13T19:47:24;3.67;;;2.13;;
20828;SDS011;10575;50.124;8.582;2023-07-13T19:49:50;3.25;;;2.10;;
20828;SDS011;10575;50.124;8.582;2023-07-13T19:52:17;5.32;;;2.40;;
20828;SDS011;10575;50.124;8.582;2023-07-13T19:54:48;3.97;;;2.50;;
20828;SDS011;10575;50.124;8.582;2023-07-13T19:57:17;4.75;;;2.78;;
20828;SDS011;10575;50.124;8.582;2023-07-13T19:59:45;3.15;;;2.03;;
20828;SDS011;10575;50.124;8.582;2023-07-13T20:02:16;5.60;;;2.55;;
20828;SDS011;10575;50.124;8.582;2023-07-13T20:04:43;5.40;;;2.20;;
20828;SDS011;10575;50.124;8.582;2023-07-13T20:07:19;5.63;;;2.63;;
20828;SDS011;10575;50.124;8.582;2023-07-13T20:09:47;5.70;;;2.20;;
20828;SDS011;10575;50.124;8.582;2023-07-13T20:12:15;3.17;;;2.20;;
20828;SDS011;10575;50.124;8.582;2023-07-13T20:14:43;6.18;;;3.03;;
20828;SDS011;10575;50.124;8.582;2023-07-13T20:17:28;3.30;;;1.90;;
20828;SDS011;10575;50.124;8.582;2023-07-13T20:19:58;4.03;;;2.53;;
20828;SDS011;10575;50.124;8.582;2023-07-13T20:22:24;3.60;;;2.38;;
20828;SDS011;10575;50.124;8.582;2023-07-13T20:24:50;6.70;;;2.15;;
20828;SDS011;10575;50.124;8.582;2023-07-13T20:27:16;8.20;;;3.58;;
20828;SDS011;10575;50.124;8.582;2023-07-13T20:29:44;5.47;;;3.10;;
20828;SDS011;10575;50.124;8.582;2023-07-13T20:32:10;5.43;;;3.55;;
20828;SDS011;10575;50.124;8.582;2023-07-13T20:34:37;4.35;;;2.53;;
20828;SDS011;10575;50.124;8.582;2023-07-13T20:37:11;5.13;;;2.50;;
20828;SDS011;10575;50.124;8.582;2023-07-13T20:39:44;5.30;;;2.55;;
20828;SDS011;10575;50.124;8.582;2023-07-13T20:42:10;5.88;;;2.90;;
20828;SDS011;10575;50.124;8.582;2023-07-13T20:44:36;4.40;;;2.70;;
20828;SDS011;10575;50.124;8.582;2023-07-13T20:47:02;3.92;;;2.38;;
20828;SDS011;10575;50.124;8.582;2023-07-13T20:49:27;14.30;;;3.03;;
20828;SDS011;10575;50.124;8.582;2023-07-13T20:51:56;8.90;;;3.28;;
20828;SDS011;10575;50.124;8.582;2023-07-13T20:54:23;4.45;;;3.05;;
20828;SDS011;10575;50.124;8.582;2023-07-13T20:56:48;4.53;;;3.03;;
20828;SDS011;10575;50.124;8.582;2023-07-13T20:59:14;5.68;;;2.90;;
20828;SDS011;10575;50.124;8.582;2023-07-13T21:01:39;4.57;;;2.80;;
20828;SDS011;10575;50.124;8.582;2023-07-13T21:04:08;3.85;;;2.95;;
20828;SDS011;10575;50.124;8.582;2023-07-13T21:06:36;3.95;;;3.10;;
20828;SDS011;10575;50.124;8.582;2023-07-13T21:09:01;5.53;;;3.22;;
20828;SDS011;10575;50.124;8.582;2023-07-13T21:11:33;6.05;;;3.47;;
20828;SDS011;10575;50.124;8.582;2023-07-13T21:13:59;5.97;;;2.88;;
20828;SDS011;10575;50.124;8.582;2023-07-13T21:16:26;3.33;;;2.30;;
20828;SDS011;10575;50.124;8.582;2023-07-13T21:18:53;7.03;;;3.03;;
20828;SDS011;10575;50.124;8.582;2023-07-13T21:21:19;5.32;;;2.30;;
20828;SDS011;10575;50.124;8.582;2023-07-13T21:23:48;5.90;;;2.55;;
20828;SDS011;10575;50.124;8.582;2023-07-13T21:26:15;5.32;;;2.53;;
20828;SDS011;10575;50.124;8.582;2023-07-13T21:28:41;4.47;;;2.40;;
20828;SDS011;10575;50.124;8.582;2023-07-13T21:31:17;5.53;;;2.28;;
20828;SDS011;10575;50.124;8.582;2023-07-13T21:33:45;3.22;;;2.13;;
20828;SDS011;10575;50.124;8.582;2023-07-13T21:36:11;4.68;;;2.42;;
20828;SDS011;10575;50.124;8.582;2023-07-13T21:38:37;3.78;;;2.50;;
20828;SDS011;10575;50.124;8.582;2023-07-13T21:41:27;4.20;;;2.65;;
20828;SDS011;10575;50.124;8.582;2023-07-13T21:43:57;6.47;;;2.75;;
20828;SDS011;10575;50.124;8.582;2023-07-13T21:46:25;4.88;;;2.63;;
20828;SDS011;10575;50.124;8.582;2023-07-13T21:48:52;5.65;;;2.70;;
20828;SDS011;10575;50.124;8.582;2023-07-13T21:51:19;3.95;;;2.50;;
20828;SDS011;10575;50.124;8.582;2023-07-13T21:53:47;5.15;;;2.60;;
20828;SDS011;10575;50.124;8.582;2023-07-13T21:56:13;4.90;;;2.58;;
20828;SDS011;10575;50.124;8.582;2023-07-13T21:58:40;4.82;;;2.45;;
20828;SDS011;10575;50.124;8.582;2023-07-13T22:01:10;4.43;;;2.63;;
20828;SDS011;10575;50.124;8.582;2023-07-13T22:03:48;3.55;;;2.08;;
20828;SDS011;10575;50.124;8.582;2023-07-13T22:06:19;3.17;;;1.95;;
20828;SDS011;10575;50.124;8.582;2023-07-13T22:08:49;4.88;;;2.30;;
20828;SDS011;10575;50.124;8.582;2023-07-13T22:11:16;4.38;;;2.40;;
20828;SDS011;10575;50.124;8.582;2023-07-13T22:13:45;3.15;;;2.03;;
20828;SDS011;10575;50.124;8.582;2023-07-13T22:18:42;3.45;;;2.20;;
20828;SDS011;10575;50.124;8.582;2023-07-13T22:21:08;3.00;;;1.98;;
20828;SDS011;10575;50.124;8.582;2023-07-13T22:23:36;5.35;;;2.38;;
20828;SDS011;10575;50.124;8.582;2023-07-13T22:26:02;3.33;;;2.17;;
20828;SDS011;10575;50.124;8.582;2023-07-13T22:28:43;2.92;;;1.90;;
20828;SDS011;10575;50.124;8.582;2023-07-13T22:31:09;3.15;;;2.00;;
20828;SDS011;10575;50.124;8.582;2023-07-13T22:33:35;4.60;;;2.05;;
20828;SDS011;10575;50.124;8.582;2023-07-13T22:36:00;3.10;;;1.63;;
20828;SDS011;10575;50.124;8.582;2023-07-13T22:38:27;2.63;;;1.90;;
20828;SDS011;10575;50.124;8.582;2023-07-13T22:40:55;6.20;;;1.90;;
20828;SDS011;10575;50.124;8.582;2023-07-13T22:43:23;2.85;;;1.85;;
20828;SDS011;10575;50.124;8.582;2023-07-13T22:45:51;2.65;;;1.95;;
20828;SDS011;10575;50.124;8.582;2023-07-13T22:48:26;3.50;;;1.85;;
20828;SDS011;10575;50.124;8.582;2023-07-13T22:51:14;3.40;;;2.10;;
20828;SDS011;10575;50.124;8.582;2023-07-13T22:53:44;5.18;;;2.00;;
20828;SDS011;10575;50.124;8.582;2023-07-13T22:56:10;2.40;;;1.60;;
20828;SDS011;10575;50.124;8.582;2023-07-13T22:58:37;2.97;;;1.90;;
20828;SDS011;10575;50.124;8.582;2023-07-13T23:01:05;3.55;;;1.90;;
20828;SDS011;10575;50.124;8.582;2023-07-13T23:03:39;4.47;;;1.98;;
20828;SDS011;10575;50.124;8.582;2023-07-13T23:06:05;3.00;;;1.70;;
20828;SDS011;10575;50.124;8.582;2023-07-13T23:08:35;2.97;;;1.65;;
20828;SDS011;10575;50.124;8.582;2023-07-13T23:11:01;4.90;;;1.70;;
20828;SDS011;10575;50.124;8.582;2023-07-13T23:13:27;3.25;;;1.92;;
20828;SDS011;10575;50.124;8.582;2023-07-13T23:15:53;4.50;;;1.88;;
20828;SDS011;10575;50.124;8.582;2023-07-13T23:18:19;2.47;;;1.80;;
20828;SDS011;10575;50.124;8.582;2023-07-13T23:20:45;4.03;;;1.85;;
20828;SDS011;10575;50.124;8.582;2023-07-13T23:23:12;4.00;;;1.75;;
20828;SDS011;10575;50.124;8.582;2023-07-13T23:25:40;2.85;;;1.60;;
20828;SDS011;10575;50.124;8.582;2023-07-13T23:28:08;2.40;;;1.70;;
20828;SDS011;10575;50.124;8.582;2023-07-13T23:30:34;1.85;;;1.60;;
20828;SDS011;10575;50.124;8.582;2023-07-13T23:33:02;3.85;;;1.63;;
20828;SDS011;10575;50.124;8.582;2023-07-13T23:35:39;5.10;;;1.80;;
20828;SDS011;10575;50.124;8.582;2023-07-13T23:38:04;5.72;;;2.15;;
20828;SDS011;10575;50.124;8.582;2023-07-13T23:40:34;3.72;;;1.80;;
20828;SDS011;10575;50.124;8.582;2023-07-13T23:43:00;2.30;;;1.42;;
20828;SDS011;10575;50.124;8.582;2023-07-13T23:45:28;3.78;;;1.80;;
20828;SDS011;10575;50.124;8.582;2023-07-13T23:47:55;3.67;;;1.98;;
20828;SDS011;10575;50.124;8.582;2023-07-13T23:50:23;4.93;;;2.35;;
20828;SDS011;10575;50.124;8.582;2023-07-13T23:52:51;3.60;;;1.92;;
20828;SDS011;10575;50.124;8.582;2023-07-13T23:55:18;3.22;;;1.88;;
20828;SDS011;10575;50.124;8.582;2023-07-13T23:57:46;4.30;;;1.83;;
